Terminal Aerodrome Forecast
Issued by NWS

Home | Current Version | Previous Version | Text Only | Print | Product List | Glossary On
Versions: 1 2 3 4 5 6 7 8 9 10 11 12
020
FTUS44 KBMX 042334
TAFANB
TAF
KANB 042334Z 0500/0524 06006KT 6SM -DZ BR OVC009
     FM050400 06003KT 3SM -RA BR OVC005
     FM051700 06005KT 4SM -RA BR OVC007=

USA.gov is the U.S. government's official web portal to all federal, state and local government web resources and services.